AirNav   Airventure
 
 742 users online  

MO75 Brownsberger Airport
Montrose, Missouri, USA

GOING TO MONTROSE?


FAA INFORMATION EFFECTIVE 20 JULY 2017

Location

FAA Identifier: MO75
Lat/Long: 38-18-18.0810N / 094-03-11.7940W
38-18.301350N / 094-03.196567W
38.3050225 / -94.0532761
(estimated)
Elevation: 794 ft. / 242 m (estimated)
Variation: 05E (1985)
From city: 8 miles NW of MONTROSE, MO
Time zone: UTC -5 (UTC -6 during Standard Time)
Zip code: 64770

Airport Operations

Airport use: Private use. Permission required prior to landing
Activation date: 05/1989
Control tower: no
ARTCC: KANSAS CITY CENTER
FSS: COLUMBIA FLIGHT SERVICE STATION
Attendance: MON-SAT DUSK-DAWN
Wind indicator: yes
Segmented circle: no

Airport Communications

WX AWOS-3 at GLY (18 nm E): 120.475 (660-885-3851)

Nearby radio navigation aids

VOR radial/distance  VOR name  Freq  Var
BUMr077/20.6BUTLER VORTAC115.9007E

 
NDB name  Hdg/Dist  Freq  Var  ID
GOLDEN VALLEY258/17.638801EGLY --. .-.. -.--

Airport Services

Runway Information

Runway 18/36

Dimensions: 1300 x 50 ft. / 396 x 15 m
Surface: turf
RUNWAY 18  RUNWAY 36
Traffic pattern: leftleft

Airport Ownership and Management from official FAA records

Ownership: Privately-owned
Owner: WALTER BROWNSBERGER
15015 MELROSE
OVERLAND PARK, KS 66221
Phone 913-897-4828
Manager: WALTER BROWNSBERGER
15015 MELROSE
OVERLAND PARK, KS 66221
Phone 913-897-4828

Airport Operational Statistics

Aircraft based on the field: 1
Single engine airplanes: 1
    

Instrument Procedures

There are no published instrument procedures at MO75.

Some nearby airports with instrument procedures:

KBUM - Butler Memorial Airport (14 nm W)
KGLY - Clinton Regional Airport (18 nm E)
KLRY - Lawrence Smith Memorial Airport (23 nm NW)
KNVD - Nevada Municipal Airport (30 nm SW)
KRCM - Skyhaven Airport (31 nm N)
 
Loc | Ops | Rwys | IFR | FBO | Links
Com | Nav | Svcs | Stats | Notes

Kansas City Aviation Department
 
Area around MO75 (Brownsberger Airport)
 
Road maps at: MapQuest Bing Google
 
Aerial photo
No photo
 
Sectional chart

 
Airport distance calculator
Flying to Brownsberger Airport? Find the distance to fly.

From to MO75

Sunrise and sunset
Times for 20-Jul-2017
 Local
(UTC-5)
 Zulu
(UTC)
Morning civil twilight05:3910:39
Sunrise06:1011:10
Sunset20:3501:35
Evening civil twilight21:0602:06

Current date and time
Zulu (UTC)  21-Jul-2017 03:43:13
Local (UTC-5)  20-Jul-2017 22:43:13
 
METAR
KGLY 
18nm E 
210315Z AUTO 18003KT 10SM CLR 27/24 A2999 RMK AO2
KLRY 
23nm NW 
210315Z AUTO 19004KT 10SM CLR 28/23 A2999 RMK AO2
KRCM 
31nm N 
210315Z AUTO 16005KT 10SM CLR 27/23 A2996 RMK AO2
KSZL 
35nm NE 
210258Z 20008KT 10SM CLR 27/27 A2996 RMK AO2A SLP138 T02720272 55000 $
TAF
KSZL 
35nm NE 
201900Z 2019/2201 22010G15KT 9999 SKC QNH2997INS BECMG 2023/2024 18012KT 9999 SKC QNH2996INS BECMG 2107/2108 18009KT 9999 SKC 510002 QNH2997INS BECMG 2115/2116 21012G20KT 9999 FEW070 QNH2990INS BECMG 2200/2201 20009KT 9999 FEW050 QNH2988INS TX37/2021Z TN25/2111Z
NOTAMs
Click for the latest NOTAMs
NOTAMs are issued by the DoD/FAA and will open in a separate window not controlled by AirNav.

 

 
 

Would you like to see your business listed on this page?

 If your business provides an interesting product or service to pilots, flight crews, aircraft, or users of the Brownsberger Airport, you should consider listing it here.  To start the listing process, click on the button below
 
Add a business
 

Other Pages about Brownsberger Airport

Update a link
 
Copyright © AirNav, LLC. All rights reserved. Privacy Policy  Contact